createdAt,value
2022-08-14T00:06:28.754Z,98432.85
2022-08-14T00:09:40.020Z,98443.38
2022-08-14T00:13:00.547Z,98441.17
2022-08-14T00:16:41.107Z,98443.53
2022-08-14T00:19:36.988Z,98441.09
2022-08-14T00:22:57.581Z,98430.82
2022-08-14T00:26:21.693Z,98432.70
2022-08-14T00:29:30.285Z,98430.27
2022-08-14T00:32:52.810Z,98434.02
2022-08-14T00:36:39.341Z,98426.20
2022-08-14T00:39:25.694Z,98431.33
2022-08-14T00:42:55.767Z,98419.20
2022-08-14T00:46:00.415Z,98413.50
2022-08-14T00:49:17.090Z,98419.34
2022-08-14T00:52:35.803Z,98414.55
2022-08-14T00:55:56.083Z,98413.00
2022-08-14T00:59:12.775Z,98415.94
2022-08-14T01:06:30.054Z,98406.81
2022-08-14T01:09:46.316Z,98407.63
2022-08-14T01:13:03.376Z,98412.77
2022-08-14T01:16:25.500Z,98411.69
2022-08-14T01:19:55.260Z,98402.83
2022-08-14T01:23:16.446Z,98395.82
2022-08-14T01:26:35.744Z,98395.56
2022-08-14T01:30:00.963Z,98395.27
2022-08-14T01:33:09.682Z,98393.89
2022-08-14T01:36:27.346Z,98391.20
2022-08-14T01:39:45.133Z,98395.17
2022-08-14T01:43:02.725Z,98398.94
2022-08-14T01:46:24.542Z,98399.97
2022-08-14T01:49:46.040Z,98394.11
2022-08-14T01:52:58.473Z,98392.70
2022-08-14T01:56:18.375Z,98397.05
2022-08-14T01:59:39.192Z,98396.70
2022-08-14T02:02:57.686Z,98402.07
2022-08-14T02:06:33.113Z,98391.33
2022-08-14T02:09:35.778Z,98393.44
2022-08-14T02:12:57.409Z,98390.20
2022-08-14T02:16:21.864Z,98389.14
2022-08-14T02:22:53.656Z,98387.52
2022-08-14T02:26:29.071Z,98383.77
2022-08-14T02:29:56.081Z,98382.14
2022-08-14T02:33:01.596Z,98379.70
2022-08-14T02:37:04.886Z,98376.19
2022-08-14T02:39:40.331Z,98382.61
2022-08-14T02:42:57.619Z,98379.45
2022-08-14T02:46:27.006Z,98382.14
2022-08-14T02:52:57.082Z,98378.08
2022-08-14T02:56:30.112Z,98374.33
2022-08-14T02:59:36.149Z,98383.70
2022-08-14T03:07:59.057Z,98375.86
2022-08-14T03:11:17.665Z,98372.05
2022-08-14T03:14:35.647Z,98374.98
2022-08-14T03:17:57.198Z,98374.16
2022-08-14T03:21:17.054Z,98369.29
2022-08-14T03:24:33.254Z,98369.21
2022-08-14T03:27:58.380Z,98362.46
2022-08-14T03:31:13.431Z,98361.95
2022-08-14T03:34:52.656Z,98361.95
2022-08-14T03:39:10.701Z,98365.48
2022-08-14T03:41:07.308Z,98371.31
2022-08-14T03:45:18.632Z,98362.46
2022-08-14T03:47:55.889Z,98363.84
2022-08-14T03:54:20.526Z,98364.39
2022-08-14T03:57:37.164Z,98365.22
2022-08-14T04:00:54.040Z,98366.60
2022-08-14T04:04:10.627Z,98366.27
2022-08-14T04:07:32.751Z,98362.53
2022-08-14T04:10:47.818Z,98365.22
2022-08-14T04:14:06.262Z,98360.91
2022-08-14T04:17:27.077Z,98363.34
2022-08-14T04:20:54.467Z,98367.91
2022-08-14T04:24:06.913Z,98368.70
2022-08-14T04:27:24.115Z,98367.91
2022-08-14T04:30:42.670Z,98369.54
2022-08-14T04:33:59.338Z,98364.17
2022-08-14T04:37:30.232Z,98365.22
2022-08-14T04:41:00.801Z,98366.27
2022-08-14T04:44:26.496Z,98366.53
2022-08-14T04:47:53.769Z,98354.73
2022-08-14T04:54:22.623Z,98362.03
2022-08-14T04:57:41.404Z,98360.50
2022-08-14T05:00:59.902Z,98359.42
2022-08-14T05:04:20.012Z,98362.36
2022-08-14T05:07:54.271Z,98359.09
2022-08-14T05:10:57.449Z,98356.73
2022-08-14T05:14:17.326Z,98354.63
2022-08-14T05:17:43.953Z,98355.20
2022-08-14T05:21:55.432Z,98358.11
2022-08-14T05:24:16.837Z,98361.55
2022-08-14T05:27:24.758Z,98352.99
2022-08-14T05:30:42.864Z,98357.38
2022-08-14T05:34:00.849Z,98347.55
2022-08-14T05:37:17.302Z,98348.70
2022-08-14T05:40:35.611Z,98351.13
2022-08-14T05:43:53.129Z,98345.20
2022-08-14T05:47:09.594Z,98342.27
2022-08-14T05:53:42.932Z,98352.58
2022-08-14T05:56:59.151Z,98352.83
2022-08-14T06:00:28.403Z,98351.04
2022-08-14T06:06:54.751Z,98360.06
2022-08-14T06:10:15.609Z,98358.81
2022-08-14T06:13:41.087Z,98355.36
2022-08-14T06:16:53.422Z,98361.83
2022-08-14T06:20:10.472Z,98364.57
2022-08-14T06:23:27.370Z,98357.56
2022-08-14T06:26:43.490Z,98371.01
2022-08-14T06:30:01.542Z,98369.38
2022-08-14T06:38:16.735Z,98369.69
2022-08-14T06:41:56.733Z,98365.75
2022-08-14T06:44:49.185Z,98350.99
2022-08-14T06:48:12.670Z,98360.20
2022-08-14T06:54:41.377Z,98361.06
2022-08-14T06:57:59.121Z,98351.50
2022-08-14T07:01:29.823Z,98356.16
2022-08-14T07:08:03.165Z,98358.67
2022-08-14T07:11:20.495Z,98357.95
2022-08-14T07:14:36.772Z,98358.23
2022-08-14T07:17:58.670Z,98358.00
2022-08-14T07:21:17.571Z,98361.59
2022-08-14T07:24:33.788Z,98353.34
2022-08-14T07:27:54.837Z,98354.13
2022-08-14T07:31:16.533Z,98353.03
2022-08-14T07:37:48.146Z,98368.12
2022-08-14T07:41:14.512Z,98368.16
2022-08-14T07:44:32.902Z,98374.91
2022-08-14T07:47:50.893Z,98370.85
2022-08-14T07:51:10.736Z,98379.42
2022-08-14T07:54:30.263Z,98376.98
2022-08-14T07:57:45.836Z,98379.11
2022-08-14T08:01:05.629Z,98381.80
2022-08-14T08:07:40.425Z,98379.38
2022-08-14T08:11:02.923Z,98379.06
2022-08-14T08:14:18.952Z,98369.39
2022-08-14T08:17:34.718Z,98376.06
2022-08-14T08:20:54.960Z,98368.06
2022-08-14T08:24:18.430Z,98380.56
2022-08-14T08:27:29.555Z,98373.94
2022-08-14T08:30:49.622Z,98370.31
2022-08-14T08:37:23.169Z,98371.52
2022-08-14T08:40:44.417Z,98365.68
2022-08-14T08:44:02.605Z,98368.91
2022-08-14T08:47:20.608Z,98368.11
2022-08-14T08:50:49.398Z,98367.06
2022-08-14T08:54:18.628Z,98375.95
2022-08-14T08:57:30.219Z,98371.41
2022-08-14T09:00:54.456Z,98376.83
2022-08-14T09:07:26.247Z,98368.26
2022-08-14T09:10:44.785Z,98374.18
2022-08-14T09:14:03.632Z,98367.42
2022-08-14T09:17:26.125Z,98373.13
2022-08-14T09:20:38.610Z,98367.20
2022-08-14T09:24:29.165Z,98369.78
2022-08-14T09:27:22.292Z,98369.24
2022-08-14T09:30:34.070Z,98366.05
2022-08-14T09:39:25.475Z,98372.32
2022-08-14T09:43:01.769Z,98371.23
2022-08-14T09:46:21.209Z,98370.95
2022-08-14T09:53:02.057Z,98376.88
2022-08-14T09:56:24.221Z,98377.44
2022-08-14T09:59:51.027Z,98370.69
2022-08-14T10:03:08.104Z,98369.91
2022-08-14T10:06:38.463Z,98368.31
2022-08-14T10:10:01.872Z,98366.91
2022-08-14T10:13:28.266Z,98361.36
2022-08-14T10:16:53.429Z,98366.11
2022-08-14T10:20:40.572Z,98369.05
2022-08-14T10:23:57.299Z,98361.66
2022-08-14T10:27:24.016Z,98354.80
2022-08-14T10:30:42.857Z,98354.64
2022-08-14T10:39:17.073Z,98359.80
2022-08-14T10:42:43.784Z,98365.50
2022-08-14T10:47:37.103Z,98362.38
2022-08-14T10:52:47.319Z,98367.59
2022-08-14T10:56:21.698Z,98365.59
2022-08-14T10:59:37.318Z,98361.63
2022-08-14T11:02:55.484Z,98371.55
2022-08-14T11:06:24.721Z,98364.45
2022-08-14T11:09:42.143Z,98370.03
2022-08-14T11:13:04.445Z,98363.77
2022-08-14T11:16:22.342Z,98363.41
2022-08-14T11:23:03.440Z,98357.81
2022-08-14T11:26:19.932Z,98361.23
2022-08-14T11:29:37.726Z,98369.54
2022-08-14T11:32:57.967Z,98369.25
2022-08-14T11:39:34.458Z,98366.94
2022-08-14T11:42:59.618Z,98361.45
2022-08-14T11:46:17.727Z,98360.21
2022-08-14T11:50:36.286Z,98381.97
2022-08-14T11:53:56.032Z,98383.16
2022-08-14T11:57:14.464Z,98380.98
2022-08-14T12:00:35.960Z,98369.91
2022-08-14T12:03:57.321Z,98366.12
2022-08-14T12:07:18.333Z,98364.20
2022-08-14T12:10:41.033Z,98359.08
2022-08-14T12:13:55.860Z,98362.03
2022-08-14T12:17:15.909Z,98359.33
2022-08-14T12:23:52.106Z,98344.92
2022-08-14T12:27:16.883Z,98348.17
2022-08-14T12:30:44.055Z,98346.80
2022-08-14T12:34:11.110Z,98346.51
2022-08-14T12:37:37.719Z,98343.55
2022-08-14T12:41:01.199Z,98338.13
2022-08-14T12:44:22.483Z,98329.17
2022-08-14T12:47:40.374Z,98329.42
2022-08-14T12:54:28.320Z,98316.66
2022-08-14T12:57:53.241Z,98326.63
2022-08-14T13:01:16.820Z,98315.04
2022-08-14T13:04:30.686Z,98309.09
2022-08-14T13:07:50.049Z,98305.05
2022-08-14T13:11:10.751Z,98298.84
2022-08-14T13:14:31.831Z,98294.80
2022-08-14T13:17:54.827Z,98296.97
2022-08-14T13:24:33.467Z,98283.92
2022-08-14T13:27:54.607Z,98279.09
2022-08-14T13:31:11.850Z,98275.59
2022-08-14T13:34:31.663Z,98268.55
2022-08-14T13:37:52.319Z,98265.84
2022-08-14T13:41:10.550Z,98260.92
2022-08-14T13:44:27.820Z,98244.63
2022-08-14T13:47:46.672Z,98254.37
2022-08-14T13:51:07.855Z,98237.30
2022-08-14T13:54:26.965Z,98246.45
2022-08-14T13:58:03.518Z,98247.28
2022-08-14T14:01:08.420Z,98240.78
2022-08-14T14:04:26.819Z,98242.40
2022-08-14T14:07:47.219Z,98231.83
2022-08-14T14:11:06.112Z,98223.14
2022-08-14T14:14:44.935Z,98234.48
2022-08-14T14:17:44.044Z,98233.92
2022-08-14T14:24:17.300Z,98227.42
2022-08-14T14:27:43.194Z,98233.08
2022-08-14T14:31:01.361Z,98233.58
2022-08-14T14:34:29.703Z,98236.03
2022-08-14T14:37:38.254Z,98233.58
2022-08-14T14:41:01.306Z,98236.88
2022-08-14T14:44:18.858Z,98243.67
2022-08-14T14:47:36.480Z,98233.10
2022-08-14T14:54:10.258Z,98224.13
2022-08-14T14:57:35.378Z,98234.41
2022-08-14T15:00:49.335Z,98225.98
2022-08-14T15:04:07.933Z,98222.48
2022-08-14T15:07:25.395Z,98221.36
2022-08-14T15:10:43.551Z,98211.35
2022-08-14T15:14:54.859Z,98231.34
2022-08-14T15:17:28.393Z,98233.77
2022-08-14T15:20:43.878Z,98221.28
2022-08-14T15:24:02.248Z,98230.44
2022-08-14T15:27:26.139Z,98236.66
2022-08-14T15:30:40.470Z,98231.23
2022-08-14T15:34:43.056Z,98242.08
2022-08-14T15:37:32.803Z,98233.70
2022-08-14T15:40:51.447Z,98235.63
2022-08-14T15:44:08.377Z,98221.28
2022-08-14T15:47:28.050Z,98229.41
2022-08-14T15:55:59.923Z,98233.50
2022-08-14T15:59:18.575Z,98219.13
2022-08-14T16:02:36.791Z,98218.33
2022-08-14T16:12:41.244Z,98206.96
2022-08-14T16:15:53.543Z,98201.55
2022-08-14T16:19:09.747Z,98199.66
2022-08-14T16:22:59.241Z,98201.55
2022-08-14T16:25:47.510Z,98195.33
2022-08-14T16:29:10.119Z,98200.52
2022-08-14T16:32:32.511Z,98213.23
2022-08-14T16:40:34.539Z,98210.58
2022-08-14T16:43:59.612Z,98209.78
2022-08-14T16:47:22.457Z,98200.83
2022-08-14T16:50:44.553Z,98193.30
2022-08-14T16:57:28.576Z,98191.67
2022-08-14T17:00:48.614Z,98186.84
2022-08-14T17:04:24.652Z,98184.69
2022-08-14T17:07:29.075Z,98185.27
2022-08-14T17:11:12.471Z,98192.34
2022-08-14T17:14:33.136Z,98200.22
2022-08-14T17:17:59.710Z,98183.77
2022-08-14T17:24:57.702Z,98191.11
2022-08-14T17:27:50.514Z,98184.37
2022-08-14T17:31:10.316Z,98194.42
2022-08-14T17:34:30.243Z,98190.36
2022-08-14T17:37:55.962Z,98185.52
2022-08-14T17:41:33.014Z,98186.61
2022-08-14T17:44:46.589Z,98190.41
2022-08-14T17:48:04.161Z,98178.83
2022-08-14T17:51:24.071Z,98187.78
2022-08-14T17:54:44.401Z,98180.22
2022-08-14T17:58:00.315Z,98174.05
2022-08-14T18:01:23.494Z,98169.86
2022-08-14T18:04:38.355Z,98175.97
2022-08-14T18:08:31.448Z,98183.32
2022-08-14T18:11:18.156Z,98182.30
2022-08-14T18:14:48.337Z,98186.42
2022-08-14T18:17:57.237Z,98191.86
2022-08-14T18:21:39.753Z,98198.31
2022-08-14T18:24:34.423Z,98201.79
2022-08-14T18:27:57.188Z,98200.17
2022-08-14T18:31:45.401Z,98201.80
2022-08-14T18:35:11.408Z,98204.50
2022-08-14T18:38:46.446Z,98208.28
2022-08-14T18:41:52.489Z,98203.95
2022-08-14T18:45:26.381Z,98205.86
2022-08-14T18:48:50.553Z,98214.77
2022-08-14T18:52:11.061Z,98217.75
2022-08-14T18:55:59.855Z,98213.42
2022-08-14T18:59:43.056Z,98215.34
2022-08-14T19:02:59.530Z,98204.84
2022-08-14T19:11:11.164Z,98204.08
2022-08-14T19:14:56.786Z,98199.24
2022-08-14T19:18:38.284Z,98200.36
2022-08-14T19:25:06.196Z,98201.44
2022-08-14T19:28:35.228Z,98190.64
2022-08-14T19:31:55.079Z,98200.09
2022-08-14T19:35:18.288Z,98197.67
2022-08-14T19:41:51.858Z,98202.26
2022-08-14T19:45:06.433Z,98199.29
2022-08-14T19:48:23.801Z,98190.09
2022-08-14T19:51:49.736Z,98190.38
2022-08-14T19:55:06.265Z,98189.83
2022-08-14T19:58:30.058Z,98188.75
2022-08-14T20:01:48.998Z,98199.52
2022-08-14T20:05:12.470Z,98196.02
2022-08-14T20:11:00.235Z,98190.07
2022-08-14T20:12:02.585Z,98186.55
2022-08-14T20:15:17.964Z,98186.30
2022-08-14T20:18:48.826Z,98174.41
2022-08-14T20:22:35.879Z,98167.66
2022-08-14T20:25:25.993Z,98169.29
2022-08-14T20:28:51.303Z,98166.31
2022-08-14T20:32:00.973Z,98166.59
2022-08-14T20:35:35.630Z,98166.30
2022-08-14T20:42:15.476Z,98177.38
2022-08-14T20:45:33.845Z,98166.59
2022-08-14T20:49:04.283Z,98184.13
2022-08-14T20:52:21.765Z,98171.16
2022-08-14T20:55:45.100Z,98173.33
2022-08-14T20:59:00.521Z,98172.49
2022-08-14T21:02:50.680Z,98173.00
2022-08-14T21:05:57.330Z,98163.05
2022-08-14T21:12:32.675Z,98160.08
2022-08-14T21:15:56.633Z,98159.80
2022-08-14T21:19:07.140Z,98154.13
2022-08-14T21:28:56.165Z,98165.69
2022-08-14T21:32:20.556Z,98154.34
2022-08-14T21:35:31.675Z,98160.00
2022-08-14T21:42:06.826Z,98141.67
2022-08-14T21:45:24.948Z,98141.38
2022-08-14T21:48:44.361Z,98146.16
2022-08-14T21:56:59.489Z,98130.48
2022-08-14T22:00:30.155Z,98139.06
2022-08-14T22:03:45.125Z,98137.11
2022-08-14T22:07:00.891Z,98133.05
2022-08-14T22:10:23.029Z,98136.27
2022-08-14T22:13:46.762Z,98136.14
2022-08-14T22:17:00.694Z,98137.73
2022-08-14T22:20:19.269Z,98143.89
2022-08-14T22:26:52.237Z,98156.55
2022-08-14T22:30:13.335Z,98157.88
2022-08-14T22:33:33.035Z,98148.47
2022-08-14T22:36:53.136Z,98151.16
2022-08-14T22:40:59.759Z,98168.88
2022-08-14T22:43:41.721Z,98160.00
2022-08-14T22:46:58.712Z,98158.94
2022-08-14T22:50:31.638Z,98163.48
2022-08-14T22:53:36.707Z,98163.48
2022-08-14T22:56:54.852Z,98160.27
2022-08-14T23:00:16.360Z,98150.30
2022-08-14T23:03:34.813Z,98148.94
2022-08-14T23:07:01.995Z,98154.29
2022-08-14T23:10:33.971Z,98153.66
2022-08-14T23:13:31.174Z,98148.80
2022-08-14T23:16:58.705Z,98139.08
2022-08-14T23:20:20.105Z,98144.69
2022-08-14T23:23:36.462Z,98128.02
2022-08-14T23:26:55.664Z,98126.95
2022-08-14T23:30:33.957Z,98126.09
2022-08-14T23:33:35.966Z,98129.54
2022-08-14T23:36:57.850Z,98128.97
2022-08-14T23:40:26.640Z,98120.33
2022-08-14T23:43:36.631Z,98123.28
2022-08-14T23:46:57.053Z,98119.16
2022-08-14T23:50:34.384Z,98122.83
2022-08-14T23:53:47.643Z,98126.53
2022-08-14T23:57:00.155Z,98118.47
